sensor_id;sensor_type;location;lat;lon;timestamp;temperature;humidity
25050;DHT22;13046;49.814;9.918;2023-02-08T09:29:10;5.00;99.90
25050;DHT22;13046;49.814;9.918;2023-02-08T09:31:36;1.10;99.90
25050;DHT22;13046;49.814;9.918;2023-02-08T09:34:03;1.40;99.90
25050;DHT22;13046;49.814;9.918;2023-02-08T09:36:32;1.60;99.90
25050;DHT22;13046;49.814;9.918;2023-02-08T09:39:11;1.70;99.90
25050;DHT22;13046;49.814;9.918;2023-02-08T09:45:02;2.10;99.90
25050;DHT22;13046;49.814;9.918;2023-02-08T09:47:34;2.30;99.90
25050;DHT22;13046;49.814;9.918;2023-02-08T09:50:13;2.40;99.90
25050;DHT22;13046;49.814;9.918;2023-02-08T09:53:08;2.20;99.90
25050;DHT22;13046;49.814;9.918;2023-02-08T09:55:40;2.40;99.90
25050;DHT22;13046;49.814;9.918;2023-02-08T09:58:19;2.20;99.90
25050;DHT22;13046;49.814;9.918;2023-02-08T10:00:47;2.40;99.90
25050;DHT22;13046;49.814;9.918;2023-02-08T10:03:39;2.40;99.90
25050;DHT22;13046;49.814;9.918;2023-02-08T10:06:14;2.40;99.90
25050;DHT22;13046;49.814;9.918;2023-02-08T10:08:41;2.30;99.90
25050;DHT22;13046;49.814;9.918;2023-02-08T10:33:11;2.90;99.90
25050;DHT22;13046;49.814;9.918;2023-02-08T10:35:44;3.10;99.90
25050;DHT22;13046;49.814;9.918;2023-02-08T10:40:43;3.70;99.90
25050;DHT22;13046;49.814;9.918;2023-02-08T10:43:32;3.80;99.90
25050;DHT22;13046;49.814;9.918;2023-02-08T10:46:33;3.90;99.90
25050;DHT22;13046;49.814;9.918;2023-02-08T10:49:10;3.40;99.90
25050;DHT22;13046;49.814;9.918;2023-02-08T10:51:37;3.70;99.90
25050;DHT22;13046;49.814;9.918;2023-02-08T10:54:03;3.80;99.90
25050;DHT22;13046;49.814;9.918;2023-02-08T10:58:55;4.10;99.90
25050;DHT22;13046;49.814;9.918;2023-02-08T11:01:21;4.30;99.90
25050;DHT22;13046;49.814;9.918;2023-02-08T11:04:08;3.90;99.90
25050;DHT22;13046;49.814;9.918;2023-02-08T11:06:38;4.10;99.90
25050;DHT22;13046;49.814;9.918;2023-02-08T11:09:04;4.40;99.90
25050;DHT22;13046;49.814;9.918;2023-02-08T11:11:42;4.50;99.90
25050;DHT22;13046;49.814;9.918;2023-02-08T11:14:26;4.40;99.90
25050;DHT22;13046;49.814;9.918;2023-02-08T11:16:54;4.60;99.90
25050;DHT22;13046;49.814;9.918;2023-02-08T11:19:37;4.70;99.90
25050;DHT22;13046;49.814;9.918;2023-02-08T11:22:15;4.40;99.90
25050;DHT22;13046;49.814;9.918;2023-02-08T11:24:43;4.20;99.90
25050;DHT22;13046;49.814;9.918;2023-02-08T11:27:17;4.30;99.90
25050;DHT22;13046;49.814;9.918;2023-02-08T11:29:43;4.70;99.90
25050;DHT22;13046;49.814;9.918;2023-02-08T11:32:17;4.60;99.90
25050;DHT22;13046;49.814;9.918;2023-02-08T11:34:43;4.20;99.90
25050;DHT22;13046;49.814;9.918;2023-02-08T11:39:44;4.40;99.90
25050;DHT22;13046;49.814;9.918;2023-02-08T11:42:30;4.70;99.90
25050;DHT22;13046;49.814;9.918;2023-02-08T11:44:58;4.60;99.90
25050;DHT22;13046;49.814;9.918;2023-02-08T11:47:27;4.80;99.90
25050;DHT22;13046;49.814;9.918;2023-02-08T11:49:56;4.90;99.90
25050;DHT22;13046;49.814;9.918;2023-02-08T11:52:53;4.70;99.90
25050;DHT22;13046;49.814;9.918;2023-02-08T12:00:24;4.90;99.90
25050;DHT22;13046;49.814;9.918;2023-02-08T12:02:53;4.50;99.90
25050;DHT22;13046;49.814;9.918;2023-02-08T12:05:26;4.50;99.90
25050;DHT22;13046;49.814;9.918;2023-02-08T12:08:03;4.80;99.90
25050;DHT22;13046;49.814;9.918;2023-02-08T12:10:58;4.90;99.90
25050;DHT22;13046;49.814;9.918;2023-02-08T12:13:43;5.00;99.90
25050;DHT22;13046;49.814;9.918;2023-02-08T12:19:17;5.20;99.90
25050;DHT22;13046;49.814;9.918;2023-02-08T12:21:50;5.10;99.90
25050;DHT22;13046;49.814;9.918;2023-02-08T12:24:50;5.50;99.90
25050;DHT22;13046;49.814;9.918;2023-02-08T12:31:21;4.90;99.90
25050;DHT22;13046;49.814;9.918;2023-02-08T12:36:15;5.10;99.90
25050;DHT22;13046;49.814;9.918;2023-02-08T12:45:14;5.80;99.90
25050;DHT22;13046;49.814;9.918;2023-02-08T12:48:05;5.50;99.90
25050;DHT22;13046;49.814;9.918;2023-02-08T12:51:07;5.40;99.90
25050;DHT22;13046;49.814;9.918;2023-02-08T12:53:40;5.10;99.90
25050;DHT22;13046;49.814;9.918;2023-02-08T12:56:15;5.30;99.90
25050;DHT22;13046;49.814;9.918;2023-02-08T12:58:45;5.30;99.90
25050;DHT22;13046;49.814;9.918;2023-02-08T13:01:28;5.00;99.90
25050;DHT22;13046;49.814;9.918;2023-02-08T13:04:03;5.10;99.90
25050;DHT22;13046;49.814;9.918;2023-02-08T13:06:41;5.30;99.90
25050;DHT22;13046;49.814;9.918;2023-02-08T13:09:21;5.80;99.90
25050;DHT22;13046;49.814;9.918;2023-02-08T13:11:56;6.20;99.90
25050;DHT22;13046;49.814;9.918;2023-02-08T13:17:16;6.80;99.90
25050;DHT22;13046;49.814;9.918;2023-02-08T13:19:52;6.50;99.90
25050;DHT22;13046;49.814;9.918;2023-02-08T13:22:20;6.30;99.90
25050;DHT22;13046;49.814;9.918;2023-02-08T13:24:47;5.60;99.90
25050;DHT22;13046;49.814;9.918;2023-02-08T13:27:19;5.80;99.90
25050;DHT22;13046;49.814;9.918;2023-02-08T13:29:47;6.20;99.90
25050;DHT22;13046;49.814;9.918;2023-02-08T13:32:29;6.30;99.90
25050;DHT22;13046;49.814;9.918;2023-02-08T13:35:02;6.00;99.90
25050;DHT22;13046;49.814;9.918;2023-02-08T13:37:31;6.20;99.90
25050;DHT22;13046;49.814;9.918;2023-02-08T13:42:38;6.90;99.90
25050;DHT22;13046;49.814;9.918;2023-02-08T13:45:07;6.80;99.90
25050;DHT22;13046;49.814;9.918;2023-02-08T13:47:43;7.00;99.90
25050;DHT22;13046;49.814;9.918;2023-02-08T13:52:57;6.50;99.90
25050;DHT22;13046;49.814;9.918;2023-02-08T13:58:56;6.00;99.90
25050;DHT22;13046;49.814;9.918;2023-02-08T14:03:23;6.20;99.90
25050;DHT22;13046;49.814;9.918;2023-02-08T14:06:17;6.80;99.90
25050;DHT22;13046;49.814;9.918;2023-02-08T14:11:48;6.40;99.90
25050;DHT22;13046;49.814;9.918;2023-02-08T15:02:21;6.20;99.90
